createdAt,value
2018-12-07T00:00:17.193Z,1.23
2018-12-07T00:02:45.619Z,1.23
2018-12-07T00:05:14.091Z,1.22
2018-12-07T00:07:42.536Z,1.24
2018-12-07T00:10:11.118Z,1.24
2018-12-07T00:12:39.571Z,1.26
2018-12-07T00:15:08.120Z,1.29
2018-12-07T00:17:36.568Z,1.28
2018-12-07T00:20:05.947Z,1.27
2018-12-07T00:22:34.369Z,1.31
2018-12-07T00:25:02.791Z,1.28
2018-12-07T00:27:31.774Z,1.16
2018-12-07T00:30:01.256Z,1.11
2018-12-07T00:32:29.901Z,1.13
2018-12-07T00:34:58.503Z,1.15
2018-12-07T00:37:27.211Z,1.20
2018-12-07T00:39:55.639Z,1.24
2018-12-07T00:42:24.059Z,1.26
2018-12-07T00:44:52.504Z,1.30
2018-12-07T00:47:20.948Z,1.30
2018-12-07T00:49:49.420Z,1.29
2018-12-07T00:52:35.188Z,1.32
2018-12-07T00:55:03.759Z,1.34
2018-12-07T00:57:32.182Z,1.33
2018-12-07T01:00:00.660Z,1.34
2018-12-07T01:02:29.799Z,1.29
2018-12-07T01:04:58.350Z,1.28
2018-12-07T01:07:26.818Z,1.28
2018-12-07T01:09:55.237Z,1.31
2018-12-07T01:12:23.707Z,1.31
2018-12-07T01:14:52.188Z,1.29
2018-12-07T01:17:20.623Z,1.32
2018-12-07T01:19:49.107Z,1.37
2018-12-07T01:22:17.517Z,1.41
2018-12-07T01:24:46.011Z,1.45
2018-12-07T01:27:14.471Z,1.45
2018-12-07T01:29:42.909Z,1.53
2018-12-07T01:32:11.322Z,1.56
2018-12-07T01:34:39.810Z,1.57
2018-12-07T01:37:08.515Z,1.57
2018-12-07T01:39:37.032Z,1.61
2018-12-07T01:42:05.500Z,1.61
2018-12-07T01:44:33.971Z,1.62
2018-12-07T01:47:02.419Z,1.65
2018-12-07T01:49:30.851Z,1.66
2018-12-07T01:51:59.310Z,1.65
2018-12-07T01:54:27.792Z,1.64
2018-12-07T01:56:56.236Z,1.65
2018-12-07T01:59:24.668Z,1.73
2018-12-07T02:01:53.113Z,1.76
2018-12-07T02:04:21.546Z,1.76
2018-12-07T02:06:49.986Z,1.76
2018-12-07T02:09:18.446Z,1.73
2018-12-07T02:11:46.860Z,1.69
2018-12-07T02:14:15.361Z,1.74
2018-12-07T02:16:43.828Z,1.71
2018-12-07T02:19:12.260Z,1.69
2018-12-07T02:21:40.740Z,1.68
2018-12-07T02:24:09.192Z,1.69
2018-12-07T02:26:37.649Z,1.70
2018-12-07T02:29:06.116Z,1.69
2018-12-07T02:31:34.540Z,1.73
2018-12-07T02:34:03.002Z,1.75
2018-12-07T02:36:31.438Z,1.74
2018-12-07T02:38:59.874Z,1.72
2018-12-07T02:41:28.344Z,1.70
2018-12-07T02:43:56.781Z,1.68
2018-12-07T02:46:25.267Z,1.71
2018-12-07T02:48:53.700Z,1.67
2018-12-07T02:51:22.108Z,1.68
2018-12-07T02:53:50.567Z,1.67
2018-12-07T02:56:18.999Z,1.65
2018-12-07T02:58:47.437Z,1.64
2018-12-07T03:01:15.908Z,1.67
2018-12-07T03:03:44.348Z,1.68
2018-12-07T03:06:12.816Z,1.69
2018-12-07T03:08:41.238Z,1.67
2018-12-07T03:11:09.672Z,1.65
2018-12-07T03:13:38.108Z,1.64
2018-12-07T03:16:06.581Z,1.66
2018-12-07T03:18:35.026Z,1.66
2018-12-07T03:21:03.441Z,1.68
2018-12-07T03:23:32.279Z,1.69
2018-12-07T03:26:00.783Z,1.72
2018-12-07T03:28:29.276Z,1.74
2018-12-07T03:30:58.068Z,1.73
2018-12-07T03:33:26.503Z,1.71
2018-12-07T03:35:54.946Z,1.68
2018-12-07T03:38:23.646Z,1.67
2018-12-07T03:40:52.093Z,1.71
2018-12-07T03:43:20.556Z,1.77
2018-12-07T03:45:49.028Z,1.77
2018-12-07T03:48:17.450Z,1.77
2018-12-07T03:50:46.006Z,1.73
2018-12-07T03:53:14.472Z,1.73
2018-12-07T03:55:42.899Z,1.76
2018-12-07T03:58:11.868Z,1.81
2018-12-07T04:00:41.163Z,1.86
2018-12-07T04:03:09.634Z,1.79
2018-12-07T04:05:38.210Z,1.79
2018-12-07T04:08:07.412Z,1.80
2018-12-07T04:10:35.819Z,1.80
2018-12-07T04:13:04.266Z,1.82
2018-12-07T04:15:32.829Z,1.84
2018-12-07T04:18:01.331Z,1.84
2018-12-07T04:20:29.780Z,1.83
2018-12-07T04:22:58.214Z,1.80
2018-12-07T04:25:26.689Z,1.77
2018-12-07T04:27:55.189Z,1.77
2018-12-07T04:30:24.662Z,1.75
2018-12-07T04:32:53.169Z,1.76
2018-12-07T04:35:21.652Z,1.80
2018-12-07T04:37:50.154Z,1.76
2018-12-07T04:40:18.583Z,1.78
2018-12-07T04:42:47.397Z,1.80
2018-12-07T04:45:15.958Z,1.83
2018-12-07T04:47:44.530Z,1.83
2018-12-07T04:50:12.971Z,1.85
2018-12-07T04:52:41.436Z,1.90
2018-12-07T04:55:09.891Z,1.93
2018-12-07T04:57:38.298Z,1.95
2018-12-07T05:00:07.936Z,1.94
2018-12-07T05:02:36.401Z,1.92
2018-12-07T05:05:05.125Z,1.89
2018-12-07T05:07:33.617Z,1.90
2018-12-07T05:10:02.074Z,1.91
2018-12-07T05:12:30.498Z,1.86
2018-12-07T05:14:59.776Z,1.88
2018-12-07T05:17:28.211Z,1.86
2018-12-07T05:19:56.710Z,1.83
2018-12-07T05:22:25.118Z,1.84
2018-12-07T05:24:53.560Z,1.81
2018-12-07T05:27:22.025Z,1.83
2018-12-07T05:29:50.537Z,1.83
2018-12-07T05:32:18.969Z,1.85
2018-12-07T05:34:47.450Z,1.82
2018-12-07T05:37:15.892Z,1.83
2018-12-07T05:39:44.604Z,1.87
2018-12-07T05:42:13.041Z,1.89
2018-12-07T05:44:41.478Z,1.89
2018-12-07T05:47:10.605Z,1.94
2018-12-07T05:49:39.067Z,1.96
2018-12-07T05:52:07.486Z,1.96
2018-12-07T05:54:35.989Z,1.98
2018-12-07T05:57:04.427Z,2.02
2018-12-07T05:59:32.883Z,2.00
2018-12-07T06:02:01.408Z,2.02
2018-12-07T06:04:29.877Z,2.06
2018-12-07T06:06:58.316Z,2.04
2018-12-07T06:09:26.789Z,2.11
2018-12-07T06:11:55.256Z,2.11
2018-12-07T06:14:23.770Z,2.11
2018-12-07T06:16:52.285Z,2.12
2018-12-07T06:19:20.726Z,2.18
2018-12-07T06:21:49.585Z,2.20
2018-12-07T06:24:18.408Z,2.21
2018-12-07T06:26:47.433Z,2.21
2018-12-07T06:29:15.947Z,2.26
2018-12-07T06:31:44.411Z,2.27
2018-12-07T06:34:13.091Z,2.28
2018-12-07T06:36:41.911Z,2.39
2018-12-07T06:39:10.584Z,3.16
2018-12-07T06:41:39.042Z,3.63
2018-12-07T06:44:07.548Z,3.84
2018-12-07T06:46:36.007Z,4.14
2018-12-07T06:49:07.755Z,4.39
2018-12-07T06:51:36.205Z,4.41
2018-12-07T06:54:04.919Z,4.17
2018-12-07T06:56:33.416Z,4.07
2018-12-07T06:59:01.888Z,4.08
2018-12-07T07:01:30.351Z,4.01
2018-12-07T07:03:58.801Z,3.86
2018-12-07T07:06:27.256Z,3.68
2018-12-07T07:08:55.724Z,3.55
2018-12-07T07:11:24.141Z,3.49
2018-12-07T07:13:52.645Z,3.38
2018-12-07T07:16:23.259Z,3.32
2018-12-07T07:18:51.602Z,3.29
2018-12-07T07:21:20.163Z,3.28
2018-12-07T07:23:48.636Z,3.28
2018-12-07T07:26:17.094Z,3.28
2018-12-07T07:28:45.553Z,3.32
2018-12-07T07:31:14.313Z,3.37
2018-12-07T07:33:42.801Z,3.37
2018-12-07T07:36:11.239Z,3.43
2018-12-07T07:38:39.936Z,3.42
2018-12-07T07:41:08.425Z,3.47
2018-12-07T07:43:36.888Z,3.46
2018-12-07T07:46:05.332Z,3.47
2018-12-07T07:48:33.792Z,3.53
2018-12-07T07:51:02.233Z,3.58
2018-12-07T07:53:31.083Z,3.61
2018-12-07T07:55:59.590Z,3.67
2018-12-07T07:58:28.260Z,3.78
2018-12-07T08:00:56.742Z,3.74
2018-12-07T08:03:25.217Z,3.71
2018-12-07T08:05:53.681Z,3.72
2018-12-07T08:08:22.163Z,3.79
2018-12-07T08:10:50.655Z,3.85
2018-12-07T08:13:19.106Z,3.90
2018-12-07T08:15:47.566Z,3.94
2018-12-07T08:18:16.044Z,4.01
2018-12-07T08:20:44.497Z,4.07
2018-12-07T08:23:14.878Z,4.09
2018-12-07T08:25:43.465Z,4.13
2018-12-07T08:28:11.910Z,4.16
2018-12-07T08:30:40.327Z,4.20
2018-12-07T08:33:08.812Z,4.29
2018-12-07T08:35:37.297Z,4.41
2018-12-07T08:38:05.741Z,4.39
2018-12-07T08:40:34.221Z,4.52
2018-12-07T08:43:02.897Z,4.59
2018-12-07T08:45:31.719Z,4.72
2018-12-07T08:48:00.246Z,4.85
2018-12-07T08:50:29.630Z,4.96
2018-12-07T08:52:58.785Z,5.08
2018-12-07T08:55:27.286Z,5.05
2018-12-07T08:57:55.796Z,5.07
2018-12-07T09:00:24.277Z,5.14
2018-12-07T09:02:52.705Z,5.12
2018-12-07T09:05:21.173Z,5.14
2018-12-07T09:07:49.585Z,5.16
2018-12-07T09:10:17.999Z,5.23
2018-12-07T09:12:46.504Z,5.24
2018-12-07T09:15:14.971Z,5.30
2018-12-07T09:17:43.456Z,5.32
2018-12-07T09:20:11.933Z,5.36
2018-12-07T09:22:40.370Z,5.38
2018-12-07T09:25:08.945Z,5.44
2018-12-07T09:27:37.369Z,5.53
2018-12-07T09:30:05.927Z,5.55
2018-12-07T09:32:34.385Z,5.57
2018-12-07T09:35:05.049Z,5.59
2018-12-07T09:37:33.483Z,5.61
2018-12-07T09:40:04.192Z,5.67
2018-12-07T09:42:32.646Z,5.68
2018-12-07T09:45:01.108Z,5.69
2018-12-07T09:47:29.874Z,5.77
2018-12-07T09:49:58.333Z,5.81
2018-12-07T09:52:27.005Z,5.63
2018-12-07T09:54:55.769Z,5.93
2018-12-07T09:57:25.025Z,5.98
2018-12-07T09:59:53.533Z,6.07
2018-12-07T10:02:22.184Z,6.11
2018-12-07T10:04:50.700Z,6.17
2018-12-07T10:07:19.184Z,6.20
2018-12-07T10:09:47.624Z,6.28
2018-12-07T10:12:16.085Z,6.35
2018-12-07T10:14:44.816Z,6.47
2018-12-07T10:17:14.077Z,6.56
2018-12-07T10:19:43.540Z,6.59
2018-12-07T10:22:12.250Z,6.71
2018-12-07T10:24:42.995Z,6.78
2018-12-07T10:27:11.421Z,6.84
2018-12-07T10:29:40.817Z,6.87
2018-12-07T10:32:09.246Z,6.91
2018-12-07T10:34:37.687Z,6.94
2018-12-07T10:37:06.160Z,6.98
2018-12-07T10:39:34.982Z,7.03
2018-12-07T10:42:03.426Z,6.97
2018-12-07T10:44:31.913Z,7.00
2018-12-07T10:47:00.374Z,7.02
2018-12-07T10:49:30.606Z,7.05
2018-12-07T10:52:00.850Z,7.03
2018-12-07T10:54:29.567Z,7.01
2018-12-07T10:57:00.096Z,6.93
2018-12-07T10:59:28.597Z,6.89
2018-12-07T11:02:02.639Z,6.89
2018-12-07T11:04:36.804Z,6.87
2018-12-07T11:07:11.011Z,6.86
2018-12-07T11:12:49.877Z,6.88
2018-12-07T11:15:24.338Z,6.85
2018-12-07T11:17:58.769Z,6.85
2018-12-07T11:20:33.305Z,6.86
2018-12-07T11:23:07.461Z,6.86
2018-12-07T11:25:42.425Z,6.82
2018-12-07T11:28:16.463Z,6.83
2018-12-07T11:33:49.727Z,6.80
2018-12-07T11:36:18.856Z,6.81
2018-12-07T11:38:48.197Z,6.83
2018-12-07T11:41:17.101Z,6.51
2018-12-07T11:43:45.565Z,6.90
2018-12-07T11:46:14.066Z,6.91
2018-12-07T11:48:44.385Z,6.89
2018-12-07T11:51:13.518Z,6.88
2018-12-07T11:53:42.066Z,6.88
2018-12-07T11:56:10.556Z,6.91
2018-12-07T11:58:39.013Z,6.93
2018-12-07T12:01:07.935Z,6.91
2018-12-07T12:03:36.424Z,6.93
2018-12-07T12:06:04.889Z,6.97
2018-12-07T12:08:33.338Z,6.99
2018-12-07T12:11:04.164Z,7.00
2018-12-07T12:13:32.857Z,7.04
2018-12-07T12:16:01.588Z,7.09
2018-12-07T12:18:30.117Z,7.12
2018-12-07T12:20:59.105Z,7.18
2018-12-07T12:23:28.205Z,7.24
2018-12-07T12:25:56.693Z,7.30
2018-12-07T12:28:25.121Z,7.38
2018-12-07T12:30:53.549Z,7.44
2018-12-07T12:33:22.596Z,7.51
2018-12-07T12:35:51.956Z,7.58
2018-12-07T12:38:23.005Z,7.67
2018-12-07T12:40:51.758Z,7.77
2018-12-07T12:43:20.210Z,7.85
2018-12-07T12:45:49.344Z,7.89
2018-12-07T12:48:18.432Z,7.95
2018-12-07T12:50:47.706Z,8.04
2018-12-07T12:53:16.154Z,8.11
2018-12-07T12:55:44.640Z,8.20
2018-12-07T12:58:13.105Z,8.27
2018-12-07T13:00:41.554Z,8.35
2018-12-07T13:03:10.029Z,8.39
2018-12-07T13:05:38.492Z,8.28
2018-12-07T13:08:07.973Z,8.54
2018-12-07T13:10:36.468Z,8.51
2018-12-07T13:13:04.925Z,8.55
2018-12-07T13:15:33.332Z,8.61
2018-12-07T13:18:03.703Z,8.71
2018-12-07T13:20:32.128Z,8.68
2018-12-07T13:23:02.949Z,8.68
2018-12-07T13:25:31.420Z,8.81
2018-12-07T13:28:01.389Z,8.75
2018-12-07T13:30:29.846Z,8.70
2018-12-07T13:33:00.033Z,8.64
2018-12-07T13:35:28.743Z,8.60
2018-12-07T13:37:57.213Z,8.55
2018-12-07T13:40:25.859Z,8.54
2018-12-07T13:42:54.787Z,8.51
2018-12-07T13:45:23.916Z,8.49
2018-12-07T13:47:52.821Z,8.46
2018-12-07T13:50:26.904Z,8.41
2018-12-07T13:52:55.649Z,8.38
2018-12-07T13:55:24.211Z,8.35
2018-12-07T13:57:53.691Z,8.25
2018-12-07T14:00:22.249Z,8.17
2018-12-07T14:02:50.914Z,8.10
2018-12-07T14:05:19.482Z,8.05
2018-12-07T14:07:48.130Z,7.99
2018-12-07T14:10:16.773Z,7.93
2018-12-07T14:12:45.553Z,7.88
2018-12-07T14:15:14.368Z,7.80
2018-12-07T14:17:43.786Z,7.81
2018-12-07T14:20:12.986Z,7.82
2018-12-07T14:22:41.670Z,7.83
2018-12-07T14:25:10.202Z,7.88
2018-12-07T14:27:41.967Z,7.89
2018-12-07T14:30:12.508Z,7.93
2018-12-07T14:32:43.280Z,7.94
2018-12-07T14:35:11.910Z,7.89
2018-12-07T14:37:40.592Z,7.83
2018-12-07T14:40:10.179Z,7.75
2018-12-07T14:42:38.783Z,7.66
2018-12-07T14:45:07.759Z,7.63
2018-12-07T14:47:37.440Z,7.52
2018-12-07T14:50:06.285Z,7.41
2018-12-07T14:52:35.290Z,7.29
2018-12-07T14:55:04.813Z,7.20
2018-12-07T14:57:33.687Z,7.10
2018-12-07T15:00:02.382Z,7.00
2018-12-07T15:02:30.857Z,6.90
2018-12-07T15:04:59.685Z,6.81
2018-12-07T15:07:28.262Z,6.71
2018-12-07T15:09:56.888Z,6.61
2018-12-07T15:12:25.513Z,6.53
2018-12-07T15:14:54.057Z,6.44
2018-12-07T15:17:22.705Z,6.39
2018-12-07T15:19:51.352Z,6.36
2018-12-07T15:22:20.029Z,6.29
2018-12-07T15:24:49.676Z,6.22
2018-12-07T15:27:18.405Z,6.15
2018-12-07T15:29:46.919Z,6.07
2018-12-07T15:32:15.870Z,6.00
2018-12-07T15:34:45.551Z,5.94
2018-12-07T15:37:14.754Z,5.91
2018-12-07T15:39:43.268Z,4.70
2018-12-07T15:42:12.786Z,5.81
2018-12-07T15:44:43.906Z,5.79
2018-12-07T15:47:14.096Z,5.71
2018-12-07T15:49:43.008Z,5.64
2018-12-07T15:52:11.736Z,5.57
2018-12-07T15:54:40.882Z,5.51
2018-12-07T15:57:10.912Z,5.45
2018-12-07T15:59:39.460Z,5.57
2018-12-07T16:02:08.110Z,5.55
2018-12-07T16:04:37.100Z,5.48
2018-12-07T16:07:06.412Z,5.40
2018-12-07T16:09:35.587Z,5.34
2018-12-07T16:12:04.562Z,5.27
2018-12-07T16:14:35.098Z,5.21
2018-12-07T16:17:05.408Z,5.14
2018-12-07T16:19:34.123Z,5.08
2018-12-07T16:22:02.670Z,5.06
2018-12-07T16:24:32.121Z,5.04
2018-12-07T16:27:01.556Z,4.98
2018-12-07T16:29:30.809Z,4.96
2018-12-07T16:31:59.425Z,4.92
2018-12-07T16:34:28.248Z,4.88
2018-12-07T16:36:57.051Z,4.82
2018-12-07T16:39:25.767Z,4.78
2018-12-07T16:41:54.380Z,4.78
2018-12-07T16:44:22.925Z,4.60
2018-12-07T16:46:52.161Z,4.68
2018-12-07T16:49:21.576Z,4.62
2018-12-07T16:54:29.809Z,4.54
2018-12-07T16:56:58.461Z,4.54
2018-12-07T16:59:28.693Z,4.56
2018-12-07T17:01:57.431Z,4.56
2018-12-07T17:04:27.094Z,4.56
2018-12-07T17:06:55.989Z,4.52
2018-12-07T17:09:25.676Z,4.39
2018-12-07T17:11:54.682Z,4.33
2018-12-07T17:14:23.808Z,4.29
2018-12-07T17:16:53.468Z,4.23
2018-12-07T17:19:23.170Z,4.32
2018-12-07T17:21:53.123Z,4.37
2018-12-07T17:24:23.452Z,4.42
2018-12-07T17:26:52.927Z,4.53
2018-12-07T17:29:22.606Z,4.50
2018-12-07T17:31:51.520Z,4.46
2018-12-07T17:34:21.618Z,4.62
2018-12-07T17:36:50.385Z,4.91
2018-12-07T17:39:19.158Z,4.85
2018-12-07T17:41:48.835Z,4.77
2018-12-07T17:44:19.821Z,4.71
2018-12-07T17:46:48.558Z,4.67
2018-12-07T17:49:17.157Z,4.69
2018-12-07T17:51:45.897Z,4.72
2018-12-07T17:54:14.642Z,4.16
2018-12-07T17:56:43.339Z,4.64
2018-12-07T17:59:12.693Z,4.60
2018-12-07T18:01:42.767Z,4.59
2018-12-07T18:04:12.341Z,4.54
2018-12-07T18:06:41.327Z,4.47
2018-12-07T18:09:11.419Z,4.42
2018-12-07T18:11:48.382Z,4.39
2018-12-07T18:14:18.143Z,4.37
2018-12-07T18:16:49.512Z,4.33
2018-12-07T18:19:18.726Z,4.31
2018-12-07T18:21:47.773Z,4.28
2018-12-07T18:24:17.731Z,4.26
2018-12-07T18:26:47.688Z,4.23
2018-12-07T18:29:16.328Z,4.22
2018-12-07T18:31:45.271Z,4.22
2018-12-07T18:34:15.361Z,4.20
2018-12-07T18:36:44.820Z,4.18
2018-12-07T18:39:14.374Z,4.15
2018-12-07T18:41:44.856Z,4.18
2018-12-07T18:44:14.295Z,4.19
2018-12-07T18:46:42.925Z,4.23
2018-12-07T18:49:11.721Z,4.25
2018-12-07T18:51:41.610Z,4.27
2018-12-07T18:54:10.757Z,4.32
2018-12-07T18:56:39.580Z,4.36
2018-12-07T18:59:09.133Z,4.39
2018-12-07T19:01:37.776Z,4.60
2018-12-07T19:04:06.503Z,4.54
2018-12-07T19:06:35.814Z,4.44
2018-12-07T19:09:08.448Z,4.38
2018-12-07T19:11:37.889Z,4.31
2018-12-07T19:14:10.592Z,4.30
2018-12-07T19:16:39.506Z,4.28
2018-12-07T19:19:08.885Z,4.25
2018-12-07T19:21:40.222Z,4.27
2018-12-07T19:24:13.352Z,4.33
2018-12-07T19:26:42.023Z,4.37
2018-12-07T19:29:11.992Z,4.36
2018-12-07T19:31:44.135Z,4.34
2018-12-07T19:34:13.811Z,4.32
2018-12-07T19:36:43.218Z,4.52
2018-12-07T19:39:11.938Z,4.48
2018-12-07T19:41:40.886Z,4.42
2018-12-07T19:44:10.915Z,4.39
2018-12-07T19:46:43.898Z,4.89
2018-12-07T19:49:13.612Z,5.15
2018-12-07T19:51:43.309Z,5.07
2018-12-07T19:54:12.574Z,4.98
2018-12-07T19:56:42.431Z,4.86
2018-12-07T19:59:11.993Z,4.76
2018-12-07T20:01:41.652Z,4.48
2018-12-07T20:04:11.036Z,4.44
2018-12-07T20:06:42.799Z,4.58
2018-12-07T20:09:16.071Z,4.58
2018-12-07T20:12:04.446Z,4.56
2018-12-07T20:14:36.116Z,4.53
2018-12-07T20:17:05.182Z,4.52
2018-12-07T20:19:34.688Z,4.59
2018-12-07T20:22:04.362Z,4.49
2018-12-07T20:24:33.332Z,4.43
2018-12-07T20:27:02.847Z,4.38
2018-12-07T20:29:32.008Z,4.37
2018-12-07T20:32:00.741Z,4.34
2018-12-07T20:34:29.691Z,4.31
2018-12-07T20:37:00.625Z,4.29
2018-12-07T20:39:29.815Z,4.28
2018-12-07T20:41:59.260Z,4.32
2018-12-07T20:44:28.339Z,4.52
2018-12-07T20:46:58.218Z,4.37
2018-12-07T20:49:28.725Z,4.29
2018-12-07T20:52:00.657Z,4.27
2018-12-07T20:54:29.994Z,4.32
2018-12-07T20:56:58.735Z,4.47
2018-12-07T20:59:28.929Z,4.35
2018-12-07T21:02:01.613Z,4.26
2018-12-07T21:04:33.995Z,4.18
2018-12-07T21:07:19.598Z,4.21
2018-12-07T21:09:48.873Z,4.29
2018-12-07T21:12:27.079Z,4.27
2018-12-07T21:14:57.485Z,4.27
2018-12-07T21:17:26.607Z,4.27
2018-12-07T21:19:56.583Z,4.47
2018-12-07T21:22:27.269Z,4.50
2018-12-07T21:24:56.226Z,4.45
2018-12-07T21:27:24.987Z,4.43
2018-12-07T21:30:04.803Z,4.44
2018-12-07T21:32:33.813Z,4.62
2018-12-07T21:35:06.178Z,4.69
2018-12-07T21:37:35.151Z,4.63
2018-12-07T21:40:11.338Z,4.60
2018-12-07T21:42:41.534Z,4.66
2018-12-07T21:45:11.002Z,4.62
2018-12-07T21:47:46.692Z,4.62
2018-12-07T21:50:17.779Z,4.76
2018-12-07T21:52:49.695Z,4.65
2018-12-07T21:55:18.550Z,4.63
2018-12-07T21:57:47.591Z,4.59
2018-12-07T22:00:16.471Z,4.60
2018-12-07T22:02:45.145Z,4.71
2018-12-07T22:05:13.709Z,4.64
2018-12-07T22:07:42.847Z,4.61
2018-12-07T22:10:12.201Z,4.65
2018-12-07T22:12:42.791Z,4.73
2018-12-07T22:15:11.602Z,4.74
2018-12-07T22:17:40.399Z,4.71
2018-12-07T22:20:13.688Z,4.69
2018-12-07T22:22:43.234Z,4.71
2018-12-07T22:25:11.757Z,4.71
2018-12-07T22:27:41.284Z,4.74
2018-12-07T22:30:11.157Z,4.76
2018-12-07T22:32:39.894Z,4.80
2018-12-07T22:35:08.509Z,4.80
2018-12-07T22:37:37.209Z,4.81
2018-12-07T22:40:06.849Z,4.79
2018-12-07T22:42:35.725Z,4.78
2018-12-07T22:45:05.364Z,4.77
2018-12-07T22:47:35.714Z,4.77
2018-12-07T22:50:04.698Z,4.80
2018-12-07T22:52:33.138Z,4.78
2018-12-07T22:55:01.640Z,4.77
2018-12-07T22:57:30.469Z,4.83
2018-12-07T22:59:58.893Z,4.81
2018-12-07T23:02:29.035Z,4.80
2018-12-07T23:04:57.737Z,4.74
2018-12-07T23:07:26.470Z,4.71
2018-12-07T23:09:54.957Z,4.81
2018-12-07T23:12:23.978Z,4.80
2018-12-07T23:14:52.480Z,4.81
2018-12-07T23:17:21.290Z,4.82
2018-12-07T23:19:49.993Z,4.84
2018-12-07T23:22:18.475Z,4.83
2018-12-07T23:24:47.250Z,4.75
2018-12-07T23:27:16.904Z,4.71
2018-12-07T23:29:45.754Z,4.70
2018-12-07T23:32:14.238Z,4.92
2018-12-07T23:34:42.917Z,4.88
2018-12-07T23:37:11.374Z,4.75
2018-12-07T23:39:41.572Z,4.70
2018-12-07T23:42:10.021Z,4.66
2018-12-07T23:44:38.695Z,4.60
2018-12-07T23:47:07.219Z,4.56
2018-12-07T23:49:35.658Z,4.54
2018-12-07T23:52:04.096Z,4.55
2018-12-07T23:54:32.561Z,4.57
2018-12-07T23:57:00.985Z,4.60
2018-12-07T23:59:29.470Z,4.60
